sensor_id;sensor_type;location;lat;lon;timestamp;P1;durP1;ratioP1;P2;durP2;ratioP2
80379;SDS011;69690;48.158;17.134;2023-07-13T00:03:47;4.53;;;2.78;;
80379;SDS011;69690;48.158;17.134;2023-07-13T00:08:49;3.05;;;2.40;;
80379;SDS011;69690;48.158;17.134;2023-07-13T00:13:50;2.80;;;1.95;;
80379;SDS011;69690;48.158;17.134;2023-07-13T00:18:52;3.00;;;2.20;;
80379;SDS011;69690;48.158;17.134;2023-07-13T00:23:53;2.55;;;2.20;;
80379;SDS011;69690;48.158;17.134;2023-07-13T00:28:54;2.35;;;2.15;;
80379;SDS011;69690;48.158;17.134;2023-07-13T00:33:56;2.90;;;2.03;;
80379;SDS011;69690;48.158;17.134;2023-07-13T00:38:57;3.33;;;1.92;;
80379;SDS011;69690;48.158;17.134;2023-07-13T00:43:59;2.37;;;1.98;;
80379;SDS011;69690;48.158;17.134;2023-07-13T00:49:06;2.10;;;2.00;;
80379;SDS011;69690;48.158;17.134;2023-07-13T00:54:12;3.53;;;2.20;;
80379;SDS011;69690;48.158;17.134;2023-07-13T00:59:28;2.20;;;1.98;;
80379;SDS011;69690;48.158;17.134;2023-07-13T01:04:31;3.05;;;2.12;;
80379;SDS011;69690;48.158;17.134;2023-07-13T01:09:32;3.87;;;2.33;;
80379;SDS011;69690;48.158;17.134;2023-07-13T01:14:34;3.62;;;2.35;;
80379;SDS011;69690;48.158;17.134;2023-07-13T01:19:36;3.97;;;2.15;;
80379;SDS011;69690;48.158;17.134;2023-07-13T01:24:45;4.00;;;2.55;;
80379;SDS011;69690;48.158;17.134;2023-07-13T01:29:49;2.45;;;2.25;;
80379;SDS011;69690;48.158;17.134;2023-07-13T01:34:52;2.78;;;2.10;;
80379;SDS011;69690;48.158;17.134;2023-07-13T01:39:54;4.00;;;2.37;;
80379;SDS011;69690;48.158;17.134;2023-07-13T01:44:56;2.83;;;2.17;;
80379;SDS011;69690;48.158;17.134;2023-07-13T01:49:57;2.30;;;1.85;;
80379;SDS011;69690;48.158;17.134;2023-07-13T01:54:59;2.53;;;1.73;;
80379;SDS011;69690;48.158;17.134;2023-07-13T02:00:02;2.05;;;1.40;;
80379;SDS011;69690;48.158;17.134;2023-07-13T02:05:16;2.15;;;1.40;;
80379;SDS011;69690;48.158;17.134;2023-07-13T02:10:17;1.60;;;1.48;;
80379;SDS011;69690;48.158;17.134;2023-07-13T02:15:19;3.00;;;1.60;;
80379;SDS011;69690;48.158;17.134;2023-07-13T02:20:21;2.50;;;1.60;;
80379;SDS011;69690;48.158;17.134;2023-07-13T02:25:23;2.05;;;1.55;;
80379;SDS011;69690;48.158;17.134;2023-07-13T02:30:28;2.28;;;1.67;;
80379;SDS011;69690;48.158;17.134;2023-07-13T02:35:30;3.15;;;1.70;;
80379;SDS011;69690;48.158;17.134;2023-07-13T02:40:32;1.87;;;1.77;;
80379;SDS011;69690;48.158;17.134;2023-07-13T02:45:34;2.62;;;2.10;;
80379;SDS011;69690;48.158;17.134;2023-07-13T02:50:37;2.42;;;1.60;;
80379;SDS011;69690;48.158;17.134;2023-07-13T02:55:38;2.90;;;2.15;;
80379;SDS011;69690;48.158;17.134;2023-07-13T03:00:41;2.95;;;1.92;;
80379;SDS011;69690;48.158;17.134;2023-07-13T03:05:43;4.00;;;2.62;;
80379;SDS011;69690;48.158;17.134;2023-07-13T03:11:03;3.65;;;2.60;;
80379;SDS011;69690;48.158;17.134;2023-07-13T03:16:08;4.12;;;2.45;;
80379;SDS011;69690;48.158;17.134;2023-07-13T03:21:11;2.53;;;2.25;;
80379;SDS011;69690;48.158;17.134;2023-07-13T03:26:14;2.75;;;2.47;;
80379;SDS011;69690;48.158;17.134;2023-07-13T03:31:20;3.20;;;2.47;;
80379;SDS011;69690;48.158;17.134;2023-07-13T03:36:27;3.28;;;2.50;;
80379;SDS011;69690;48.158;17.134;2023-07-13T03:41:30;4.80;;;2.33;;
80379;SDS011;69690;48.158;17.134;2023-07-13T03:46:32;3.58;;;2.67;;
80379;SDS011;69690;48.158;17.134;2023-07-13T03:51:34;4.15;;;2.87;;
80379;SDS011;69690;48.158;17.134;2023-07-13T03:56:36;2.92;;;2.58;;
80379;SDS011;69690;48.158;17.134;2023-07-13T04:01:37;2.42;;;2.10;;
80379;SDS011;69690;48.158;17.134;2023-07-13T04:06:38;2.42;;;2.17;;
80379;SDS011;69690;48.158;17.134;2023-07-13T04:11:40;2.62;;;2.20;;
80379;SDS011;69690;48.158;17.134;2023-07-13T04:16:41;5.15;;;2.67;;
80379;SDS011;69690;48.158;17.134;2023-07-13T04:21:43;5.12;;;3.00;;
80379;SDS011;69690;48.158;17.134;2023-07-13T04:26:45;4.80;;;2.75;;
80379;SDS011;69690;48.158;17.134;2023-07-13T04:31:46;4.57;;;3.17;;
80379;SDS011;69690;48.158;17.134;2023-07-13T04:36:48;8.95;;;5.75;;
80379;SDS011;69690;48.158;17.134;2023-07-13T04:41:50;4.05;;;3.65;;
80379;SDS011;69690;48.158;17.134;2023-07-13T04:46:51;5.32;;;4.55;;
80379;SDS011;69690;48.158;17.134;2023-07-13T04:51:52;6.62;;;5.90;;
80379;SDS011;69690;48.158;17.134;2023-07-13T04:56:55;4.87;;;4.03;;
80379;SDS011;69690;48.158;17.134;2023-07-13T05:01:56;7.00;;;5.45;;
80379;SDS011;69690;48.158;17.134;2023-07-13T05:06:58;5.37;;;4.60;;
80379;SDS011;69690;48.158;17.134;2023-07-13T05:12:00;4.62;;;3.12;;
80379;SDS011;69690;48.158;17.134;2023-07-13T05:17:01;3.60;;;3.22;;
80379;SDS011;69690;48.158;17.134;2023-07-13T05:22:03;4.18;;;2.70;;
80379;SDS011;69690;48.158;17.134;2023-07-13T05:27:04;2.80;;;2.53;;
80379;SDS011;69690;48.158;17.134;2023-07-13T05:32:06;2.80;;;1.95;;
80379;SDS011;69690;48.158;17.134;2023-07-13T05:37:07;2.33;;;1.60;;
80379;SDS011;69690;48.158;17.134;2023-07-13T05:42:09;1.62;;;1.52;;
80379;SDS011;69690;48.158;17.134;2023-07-13T05:47:10;4.80;;;1.80;;
80379;SDS011;69690;48.158;17.134;2023-07-13T05:52:12;3.62;;;1.90;;
80379;SDS011;69690;48.158;17.134;2023-07-13T05:57:13;1.87;;;1.75;;
80379;SDS011;69690;48.158;17.134;2023-07-13T06:02:14;2.25;;;2.05;;
80379;SDS011;69690;48.158;17.134;2023-07-13T06:07:16;2.12;;;1.92;;
80379;SDS011;69690;48.158;17.134;2023-07-13T06:12:19;2.83;;;2.05;;
80379;SDS011;69690;48.158;17.134;2023-07-13T06:17:20;2.58;;;2.17;;
80379;SDS011;69690;48.158;17.134;2023-07-13T06:22:21;2.72;;;1.70;;
80379;SDS011;69690;48.158;17.134;2023-07-13T06:27:23;3.30;;;2.60;;
80379;SDS011;69690;48.158;17.134;2023-07-13T06:32:24;2.50;;;2.30;;
80379;SDS011;69690;48.158;17.134;2023-07-13T06:37:26;4.10;;;2.30;;
80379;SDS011;69690;48.158;17.134;2023-07-13T06:42:27;4.62;;;2.72;;
80379;SDS011;69690;48.158;17.134;2023-07-13T06:47:28;3.30;;;2.35;;
80379;SDS011;69690;48.158;17.134;2023-07-13T06:52:31;3.33;;;2.58;;
80379;SDS011;69690;48.158;17.134;2023-07-13T06:57:32;4.80;;;3.10;;
80379;SDS011;69690;48.158;17.134;2023-07-13T07:02:34;3.40;;;2.45;;
80379;SDS011;69690;48.158;17.134;2023-07-13T07:07:35;3.05;;;2.50;;
80379;SDS011;69690;48.158;17.134;2023-07-13T07:12:39;2.83;;;2.50;;
80379;SDS011;69690;48.158;17.134;2023-07-13T07:17:40;1.95;;;1.85;;
80379;SDS011;69690;48.158;17.134;2023-07-13T07:22:44;6.50;;;2.42;;
80379;SDS011;69690;48.158;17.134;2023-07-13T07:27:45;2.22;;;2.03;;
80379;SDS011;69690;48.158;17.134;2023-07-13T07:32:47;3.67;;;2.28;;
80379;SDS011;69690;48.158;17.134;2023-07-13T07:37:48;6.28;;;2.33;;
80379;SDS011;69690;48.158;17.134;2023-07-13T07:42:49;1.80;;;1.70;;
80379;SDS011;69690;48.158;17.134;2023-07-13T07:47:50;2.35;;;1.87;;
80379;SDS011;69690;48.158;17.134;2023-07-13T07:52:54;3.75;;;2.05;;
80379;SDS011;69690;48.158;17.134;2023-07-13T07:57:58;2.80;;;2.20;;
80379;SDS011;69690;48.158;17.134;2023-07-13T08:02:59;2.30;;;2.20;;
80379;SDS011;69690;48.158;17.134;2023-07-13T08:08:01;2.72;;;2.00;;
80379;SDS011;69690;48.158;17.134;2023-07-13T08:13:02;2.30;;;2.10;;
80379;SDS011;69690;48.158;17.134;2023-07-13T08:18:04;4.03;;;2.17;;
80379;SDS011;69690;48.158;17.134;2023-07-13T08:23:06;2.53;;;2.40;;
80379;SDS011;69690;48.158;17.134;2023-07-13T08:28:09;2.62;;;2.42;;
80379;SDS011;69690;48.158;17.134;2023-07-13T08:33:10;4.10;;;2.70;;
80379;SDS011;69690;48.158;17.134;2023-07-13T08:38:11;4.07;;;2.60;;
80379;SDS011;69690;48.158;17.134;2023-07-13T08:43:16;2.75;;;2.42;;
80379;SDS011;69690;48.158;17.134;2023-07-13T08:48:33;4.12;;;2.67;;
80379;SDS011;69690;48.158;17.134;2023-07-13T08:53:42;3.58;;;2.10;;
80379;SDS011;69690;48.158;17.134;2023-07-13T08:58:50;3.35;;;2.30;;
80379;SDS011;69690;48.158;17.134;2023-07-13T09:09:52;2.30;;;2.20;;
80379;SDS011;69690;48.158;17.134;2023-07-13T09:20:46;2.78;;;2.45;;
80379;SDS011;69690;48.158;17.134;2023-07-13T09:25:53;2.55;;;2.10;;
80379;SDS011;69690;48.158;17.134;2023-07-13T09:36:31;2.42;;;2.22;;
80379;SDS011;69690;48.158;17.134;2023-07-13T09:41:45;2.15;;;1.92;;
80379;SDS011;69690;48.158;17.134;2023-07-13T09:46:55;2.87;;;2.22;;
80379;SDS011;69690;48.158;17.134;2023-07-13T09:51:58;2.37;;;2.17;;
80379;SDS011;69690;48.158;17.134;2023-07-13T09:57:11;2.47;;;2.25;;
80379;SDS011;69690;48.158;17.134;2023-07-13T10:02:29;2.58;;;2.33;;
80379;SDS011;69690;48.158;17.134;2023-07-13T10:07:37;5.55;;;5.05;;
80379;SDS011;69690;48.158;17.134;2023-07-13T10:12:41;5.22;;;4.90;;
80379;SDS011;69690;48.158;17.134;2023-07-13T10:17:42;2.37;;;2.03;;
80379;SDS011;69690;48.158;17.134;2023-07-13T10:23:01;3.10;;;2.90;;
80379;SDS011;69690;48.158;17.134;2023-07-13T10:28:27;2.70;;;2.50;;
80379;SDS011;69690;48.158;17.134;2023-07-13T10:33:36;2.50;;;2.30;;
80379;SDS011;69690;48.158;17.134;2023-07-13T10:38:37;2.15;;;2.05;;
80379;SDS011;69690;48.158;17.134;2023-07-13T10:43:41;2.10;;;2.00;;
80379;SDS011;69690;48.158;17.134;2023-07-13T10:48:49;3.05;;;2.25;;
80379;SDS011;69690;48.158;17.134;2023-07-13T10:54:10;2.08;;;1.92;;
80379;SDS011;69690;48.158;17.134;2023-07-13T10:59:27;3.15;;;2.80;;
80379;SDS011;69690;48.158;17.134;2023-07-13T11:04:29;4.90;;;2.90;;
80379;SDS011;69690;48.158;17.134;2023-07-13T11:09:48;4.05;;;2.12;;
80379;SDS011;69690;48.158;17.134;2023-07-13T11:25:25;3.60;;;2.85;;
80379;SDS011;69690;48.158;17.134;2023-07-13T11:35:30;4.40;;;2.97;;
80379;SDS011;69690;48.158;17.134;2023-07-13T11:40:36;4.35;;;3.30;;
80379;SDS011;69690;48.158;17.134;2023-07-13T11:45:37;3.20;;;2.92;;
80379;SDS011;69690;48.158;17.134;2023-07-13T11:50:38;2.92;;;2.72;;
80379;SDS011;69690;48.158;17.134;2023-07-13T11:55:39;3.20;;;2.90;;
80379;SDS011;69690;48.158;17.134;2023-07-13T12:00:41;3.47;;;2.78;;
80379;SDS011;69690;48.158;17.134;2023-07-13T12:05:55;4.32;;;2.75;;
80379;SDS011;69690;48.158;17.134;2023-07-13T12:11:06;3.95;;;3.08;;
80379;SDS011;69690;48.158;17.134;2023-07-13T12:16:21;3.75;;;3.10;;
80379;SDS011;69690;48.158;17.134;2023-07-13T12:21:34;2.92;;;2.42;;
80379;SDS011;69690;48.158;17.134;2023-07-13T12:26:39;4.07;;;2.65;;
80379;SDS011;69690;48.158;17.134;2023-07-13T12:31:41;2.53;;;2.30;;
80379;SDS011;69690;48.158;17.134;2023-07-13T12:36:55;4.12;;;2.70;;
80379;SDS011;69690;48.158;17.134;2023-07-13T12:42:22;4.57;;;2.70;;
80379;SDS011;69690;48.158;17.134;2023-07-13T12:47:27;2.92;;;2.72;;
80379;SDS011;69690;48.158;17.134;2023-07-13T12:57:39;3.58;;;3.20;;
80379;SDS011;69690;48.158;17.134;2023-07-13T13:02:43;4.18;;;2.83;;
80379;SDS011;69690;48.158;17.134;2023-07-13T13:07:44;5.00;;;2.90;;
80379;SDS011;69690;48.158;17.134;2023-07-13T13:12:47;3.15;;;2.58;;
80379;SDS011;69690;48.158;17.134;2023-07-13T13:17:48;4.60;;;2.70;;
80379;SDS011;69690;48.158;17.134;2023-07-13T13:22:52;3.15;;;2.87;;
80379;SDS011;69690;48.158;17.134;2023-07-13T13:27:56;4.57;;;2.62;;
80379;SDS011;69690;48.158;17.134;2023-07-13T13:32:58;2.72;;;2.28;;
80379;SDS011;69690;48.158;17.134;2023-07-13T13:37:59;4.22;;;2.53;;
80379;SDS011;69690;48.158;17.134;2023-07-13T13:43:00;4.00;;;2.50;;
80379;SDS011;69690;48.158;17.134;2023-07-13T13:48:01;3.42;;;2.53;;
80379;SDS011;69690;48.158;17.134;2023-07-13T13:53:03;3.45;;;2.53;;
80379;SDS011;69690;48.158;17.134;2023-07-13T13:58:04;3.67;;;2.70;;
80379;SDS011;69690;48.158;17.134;2023-07-13T14:03:08;4.57;;;2.42;;
80379;SDS011;69690;48.158;17.134;2023-07-13T14:08:21;5.15;;;2.62;;
80379;SDS011;69690;48.158;17.134;2023-07-13T14:13:27;3.65;;;2.72;;
80379;SDS011;69690;48.158;17.134;2023-07-13T14:18:34;3.67;;;3.10;;
80379;SDS011;69690;48.158;17.134;2023-07-13T14:23:38;3.45;;;3.05;;
80379;SDS011;69690;48.158;17.134;2023-07-13T14:28:43;4.18;;;3.00;;
80379;SDS011;69690;48.158;17.134;2023-07-13T14:33:48;6.65;;;2.95;;
80379;SDS011;69690;48.158;17.134;2023-07-13T14:38:49;4.80;;;2.97;;
80379;SDS011;69690;48.158;17.134;2023-07-13T14:43:50;4.10;;;2.90;;
80379;SDS011;69690;48.158;17.134;2023-07-13T14:48:53;7.90;;;2.95;;
80379;SDS011;69690;48.158;17.134;2023-07-13T14:54:10;3.33;;;2.60;;
80379;SDS011;69690;48.158;17.134;2023-07-13T14:59:12;6.45;;;3.08;;
80379;SDS011;69690;48.158;17.134;2023-07-13T15:04:14;4.57;;;2.70;;
80379;SDS011;69690;48.158;17.134;2023-07-13T15:09:16;4.87;;;2.92;;
80379;SDS011;69690;48.158;17.134;2023-07-13T15:14:17;3.33;;;2.65;;
80379;SDS011;69690;48.158;17.134;2023-07-13T15:19:18;6.25;;;2.92;;
80379;SDS011;69690;48.158;17.134;2023-07-13T15:24:21;3.67;;;2.90;;
80379;SDS011;69690;48.158;17.134;2023-07-13T15:29:22;5.10;;;2.97;;
80379;SDS011;69690;48.158;17.134;2023-07-13T15:34:24;3.58;;;2.65;;
80379;SDS011;69690;48.158;17.134;2023-07-13T15:39:26;4.85;;;3.00;;
80379;SDS011;69690;48.158;17.134;2023-07-13T15:44:28;3.20;;;2.72;;
80379;SDS011;69690;48.158;17.134;2023-07-13T15:49:31;3.47;;;3.00;;
80379;SDS011;69690;48.158;17.134;2023-07-13T15:54:33;4.72;;;3.20;;
80379;SDS011;69690;48.158;17.134;2023-07-13T15:59:34;3.45;;;2.65;;
80379;SDS011;69690;48.158;17.134;2023-07-13T16:04:35;3.85;;;3.30;;
80379;SDS011;69690;48.158;17.134;2023-07-13T16:09:37;8.82;;;2.92;;
80379;SDS011;69690;48.158;17.134;2023-07-13T16:14:41;3.12;;;2.85;;
80379;SDS011;69690;48.158;17.134;2023-07-13T16:19:42;4.85;;;2.90;;
80379;SDS011;69690;48.158;17.134;2023-07-13T16:24:44;4.82;;;3.22;;
80379;SDS011;69690;48.158;17.134;2023-07-13T16:29:45;3.45;;;3.03;;
80379;SDS011;69690;48.158;17.134;2023-07-13T16:34:46;6.00;;;3.10;;
80379;SDS011;69690;48.158;17.134;2023-07-13T16:39:50;5.10;;;3.25;;
80379;SDS011;69690;48.158;17.134;2023-07-13T16:44:58;2.87;;;2.67;;
80379;SDS011;69690;48.158;17.134;2023-07-13T16:55:26;5.32;;;2.70;;
80379;SDS011;69690;48.158;17.134;2023-07-13T17:00:29;2.90;;;2.67;;
80379;SDS011;69690;48.158;17.134;2023-07-13T17:05:36;5.15;;;2.60;;
80379;SDS011;69690;48.158;17.134;2023-07-13T17:10:46;4.47;;;2.70;;
80379;SDS011;69690;48.158;17.134;2023-07-13T17:15:50;3.70;;;2.70;;
80379;SDS011;69690;48.158;17.134;2023-07-13T17:20:56;2.72;;;2.47;;
80379;SDS011;69690;48.158;17.134;2023-07-13T17:25:57;3.80;;;2.55;;
80379;SDS011;69690;48.158;17.134;2023-07-13T17:30:59;3.53;;;2.53;;
80379;SDS011;69690;48.158;17.134;2023-07-13T17:36:03;4.03;;;2.70;;
80379;SDS011;69690;48.158;17.134;2023-07-13T17:41:15;4.05;;;2.78;;
80379;SDS011;69690;48.158;17.134;2023-07-13T17:46:18;2.92;;;2.42;;
80379;SDS011;69690;48.158;17.134;2023-07-13T17:51:28;2.62;;;2.42;;
80379;SDS011;69690;48.158;17.134;2023-07-13T17:56:29;4.15;;;2.65;;
80379;SDS011;69690;48.158;17.134;2023-07-13T18:01:32;2.85;;;2.50;;
80379;SDS011;69690;48.158;17.134;2023-07-13T18:06:37;2.58;;;2.37;;
80379;SDS011;69690;48.158;17.134;2023-07-13T18:11:44;3.12;;;2.25;;
80379;SDS011;69690;48.158;17.134;2023-07-13T18:17:04;2.60;;;2.30;;
80379;SDS011;69690;48.158;17.134;2023-07-13T18:22:10;3.60;;;2.50;;
80379;SDS011;69690;48.158;17.134;2023-07-13T18:27:14;2.92;;;2.20;;
80379;SDS011;69690;48.158;17.134;2023-07-13T18:32:16;3.53;;;2.30;;
80379;SDS011;69690;48.158;17.134;2023-07-13T18:37:21;3.60;;;2.45;;
80379;SDS011;69690;48.158;17.134;2023-07-13T18:42:23;4.12;;;2.40;;
80379;SDS011;69690;48.158;17.134;2023-07-13T18:47:25;4.05;;;2.50;;
80379;SDS011;69690;48.158;17.134;2023-07-13T18:52:29;2.95;;;2.20;;
80379;SDS011;69690;48.158;17.134;2023-07-13T18:57:31;2.50;;;2.28;;
80379;SDS011;69690;48.158;17.134;2023-07-13T19:02:32;3.22;;;2.40;;
80379;SDS011;69690;48.158;17.134;2023-07-13T19:07:33;5.12;;;2.60;;
80379;SDS011;69690;48.158;17.134;2023-07-13T19:12:34;2.90;;;2.60;;
80379;SDS011;69690;48.158;17.134;2023-07-13T19:17:36;2.87;;;2.50;;
80379;SDS011;69690;48.158;17.134;2023-07-13T19:22:38;2.58;;;2.37;;
80379;SDS011;69690;48.158;17.134;2023-07-13T19:27:39;2.90;;;2.42;;
80379;SDS011;69690;48.158;17.134;2023-07-13T19:32:41;4.72;;;2.60;;
80379;SDS011;69690;48.158;17.134;2023-07-13T19:37:44;2.50;;;2.30;;
80379;SDS011;69690;48.158;17.134;2023-07-13T19:42:46;9.07;;;2.50;;
80379;SDS011;69690;48.158;17.134;2023-07-13T19:47:48;2.80;;;2.50;;
80379;SDS011;69690;48.158;17.134;2023-07-13T19:52:53;6.55;;;2.33;;
80379;SDS011;69690;48.158;17.134;2023-07-13T19:57:57;4.03;;;2.70;;
80379;SDS011;69690;48.158;17.134;2023-07-13T20:02:58;3.47;;;2.53;;
80379;SDS011;69690;48.158;17.134;2023-07-13T20:07:59;2.80;;;2.47;;
80379;SDS011;69690;48.158;17.134;2023-07-13T20:13:01;4.70;;;3.53;;
80379;SDS011;69690;48.158;17.134;2023-07-13T20:18:02;4.55;;;4.15;;
80379;SDS011;69690;48.158;17.134;2023-07-13T20:23:15;3.08;;;2.87;;
80379;SDS011;69690;48.158;17.134;2023-07-13T20:28:19;2.87;;;2.67;;
80379;SDS011;69690;48.158;17.134;2023-07-13T20:33:26;4.40;;;4.00;;
80379;SDS011;69690;48.158;17.134;2023-07-13T20:38:29;3.58;;;3.33;;
80379;SDS011;69690;48.158;17.134;2023-07-13T20:43:30;3.37;;;2.50;;
80379;SDS011;69690;48.158;17.134;2023-07-13T20:53:40;3.85;;;2.80;;
80379;SDS011;69690;48.158;17.134;2023-07-13T20:58:42;3.67;;;2.60;;
80379;SDS011;69690;48.158;17.134;2023-07-13T21:03:44;5.68;;;2.80;;
80379;SDS011;69690;48.158;17.134;2023-07-13T21:08:46;3.75;;;2.62;;
80379;SDS011;69690;48.158;17.134;2023-07-13T21:13:47;3.75;;;2.62;;
80379;SDS011;69690;48.158;17.134;2023-07-13T21:18:49;2.97;;;2.70;;
80379;SDS011;69690;48.158;17.134;2023-07-13T21:23:51;3.85;;;2.60;;
80379;SDS011;69690;48.158;17.134;2023-07-13T21:28:53;4.65;;;2.83;;
80379;SDS011;69690;48.158;17.134;2023-07-13T21:33:56;3.47;;;2.80;;
80379;SDS011;69690;48.158;17.134;2023-07-13T21:39:00;4.43;;;2.62;;
80379;SDS011;69690;48.158;17.134;2023-07-13T21:44:23;3.10;;;2.80;;
80379;SDS011;69690;48.158;17.134;2023-07-13T21:49:29;5.65;;;2.72;;
80379;SDS011;69690;48.158;17.134;2023-07-13T21:54:31;2.97;;;2.62;;
80379;SDS011;69690;48.158;17.134;2023-07-13T21:59:32;3.78;;;2.55;;
80379;SDS011;69690;48.158;17.134;2023-07-13T22:04:33;3.62;;;2.30;;
80379;SDS011;69690;48.158;17.134;2023-07-13T22:09:35;3.20;;;2.90;;
80379;SDS011;69690;48.158;17.134;2023-07-13T22:14:37;2.75;;;2.40;;
80379;SDS011;69690;48.158;17.134;2023-07-13T22:19:38;2.72;;;2.53;;
80379;SDS011;69690;48.158;17.134;2023-07-13T22:24:39;2.85;;;2.45;;
80379;SDS011;69690;48.158;17.134;2023-07-13T22:29:40;2.60;;;2.40;;
80379;SDS011;69690;48.158;17.134;2023-07-13T22:34:41;4.28;;;2.28;;
80379;SDS011;69690;48.158;17.134;2023-07-13T22:39:43;3.72;;;2.37;;
80379;SDS011;69690;48.158;17.134;2023-07-13T22:44:45;3.08;;;2.30;;
80379;SDS011;69690;48.158;17.134;2023-07-13T22:49:48;5.25;;;2.67;;
80379;SDS011;69690;48.158;17.134;2023-07-13T22:54:50;2.67;;;2.20;;
80379;SDS011;69690;48.158;17.134;2023-07-13T22:59:51;2.53;;;2.33;;
80379;SDS011;69690;48.158;17.134;2023-07-13T23:04:52;3.00;;;2.70;;
80379;SDS011;69690;48.158;17.134;2023-07-13T23:09:53;3.45;;;2.50;;
80379;SDS011;69690;48.158;17.134;2023-07-13T23:14:55;2.80;;;2.35;;
80379;SDS011;69690;48.158;17.134;2023-07-13T23:19:56;4.37;;;2.40;;
80379;SDS011;69690;48.158;17.134;2023-07-13T23:24:59;3.62;;;2.58;;
80379;SDS011;69690;48.158;17.134;2023-07-13T23:30:03;2.55;;;2.20;;
80379;SDS011;69690;48.158;17.134;2023-07-13T23:35:08;3.10;;;2.80;;
80379;SDS011;69690;48.158;17.134;2023-07-13T23:40:17;3.15;;;2.42;;
80379;SDS011;69690;48.158;17.134;2023-07-13T23:45:23;3.72;;;2.55;;
80379;SDS011;69690;48.158;17.134;2023-07-13T23:50:28;2.50;;;2.30;;
80379;SDS011;69690;48.158;17.134;2023-07-13T23:55:31;5.53;;;2.40;;
